LYNI/INI METAR and TAF weather

Enter ICAO airport designator
Station Type Date Time Source
LYNI METAR 2023/02/05 14:30 UTC NOAA

LYNI 051430Z 31015KT 9999 FEW027 SCT043 M01/M07 Q1027 NOSIG


Station Type Date Time Source
LYNI Decoded METAR 2023/02/05 14:30 UTC NOAA

Nis, Serbia and Montenegro (LYNI) 43-20N 021-54E 202M
Feb 05, 2023 - 09:30 AM EST / 2023.02.05 1430 UTC
Wind: from the NW (310 degrees) at 17 MPH (15 KT):0
Visibility: greater than 7 mile(s):0
Sky conditions: partly cloudy
Temperature: 30 F (-1 C)
Windchill: 17 F (-8 C):1
Dew Point: 19 F (-7 C)
Relative Humidity: 63%
Pressure (altimeter): 30.33 in. Hg (1027 hPa)
ob: LYNI 051430Z 31015KT 9999 FEW027 SCT043 M01/M07 Q1027 NOSIG
cycle: 14

Station Type Date Time Source
LYNI TAF 2023/02/05 12:21 UTC NOAA

TAF LYNI 051100Z 0512/0612 32014KT 9999 SCT030 TXM01/0512Z TNM08/0606Z
TEMPO 0512/0515 32018G30KT 3000 SHSN SCT025TCU BKN027
TEMPO 0602/0608 BKN010

Example: see airport list